sensor_id;sensor_type;location;lat;lon;timestamp;temperature;humidity
49042;DHT22;34859;51.608;11.462;2022-08-24T00:00:19;14.90;99.90
49042;DHT22;34859;51.608;11.462;2022-08-24T00:03:01;14.90;99.90
49042;DHT22;34859;51.608;11.462;2022-08-24T00:05:46;14.90;99.90
49042;DHT22;34859;51.608;11.462;2022-08-24T00:08:30;14.80;99.90
49042;DHT22;34859;51.608;11.462;2022-08-24T00:11:15;14.80;99.90
49042;DHT22;34859;51.608;11.462;2022-08-24T00:14:00;14.80;99.90
49042;DHT22;34859;51.608;11.462;2022-08-24T00:16:44;14.80;99.90
49042;DHT22;34859;51.608;11.462;2022-08-24T00:19:29;14.80;99.90
49042;DHT22;34859;51.608;11.462;2022-08-24T00:22:13;14.80;99.90
49042;DHT22;34859;51.608;11.462;2022-08-24T00:24:57;14.70;99.90
49042;DHT22;34859;51.608;11.462;2022-08-24T00:27:42;14.70;99.90
49042;DHT22;34859;51.608;11.462;2022-08-24T00:30:27;14.70;99.90
49042;DHT22;34859;51.608;11.462;2022-08-24T00:33:11;14.60;99.90
49042;DHT22;34859;51.608;11.462;2022-08-24T00:35:55;14.60;99.90
49042;DHT22;34859;51.608;11.462;2022-08-24T00:38:40;14.50;99.90
49042;DHT22;34859;51.608;11.462;2022-08-24T00:41:25;14.50;99.90
49042;DHT22;34859;51.608;11.462;2022-08-24T00:44:10;14.50;99.90
49042;DHT22;34859;51.608;11.462;2022-08-24T00:46:57;14.50;99.90
49042;DHT22;34859;51.608;11.462;2022-08-24T00:49:54;14.50;99.90
49042;DHT22;34859;51.608;11.462;2022-08-24T00:53:31;14.50;99.90
49042;DHT22;34859;51.608;11.462;2022-08-24T00:55:59;14.50;99.90
49042;DHT22;34859;51.608;11.462;2022-08-24T00:58:58;14.50;99.90
49042;DHT22;34859;51.608;11.462;2022-08-24T01:01:43;14.40;99.90
49042;DHT22;34859;51.608;11.462;2022-08-24T01:04:34;14.50;99.90
49042;DHT22;34859;51.608;11.462;2022-08-24T01:07:24;14.40;99.90
49042;DHT22;34859;51.608;11.462;2022-08-24T01:10:14;14.40;99.90
49042;DHT22;34859;51.608;11.462;2022-08-24T01:13:02;14.30;99.90
49042;DHT22;34859;51.608;11.462;2022-08-24T01:15:50;14.30;99.90
49042;DHT22;34859;51.608;11.462;2022-08-24T01:18:36;14.30;99.90
49042;DHT22;34859;51.608;11.462;2022-08-24T01:21:39;14.30;99.90
49042;DHT22;34859;51.608;11.462;2022-08-24T01:24:28;14.30;99.90
49042;DHT22;34859;51.608;11.462;2022-08-24T01:27:13;14.30;99.90
49042;DHT22;34859;51.608;11.462;2022-08-24T01:29:59;14.20;99.90
49042;DHT22;34859;51.608;11.462;2022-08-24T01:32:52;14.20;99.90
49042;DHT22;34859;51.608;11.462;2022-08-24T01:35:37;14.10;99.90
49042;DHT22;34859;51.608;11.462;2022-08-24T01:38:22;14.10;99.90
49042;DHT22;34859;51.608;11.462;2022-08-24T01:41:07;14.10;99.90
49042;DHT22;34859;51.608;11.462;2022-08-24T01:43:51;14.00;99.90
49042;DHT22;34859;51.608;11.462;2022-08-24T01:46:35;14.00;99.90
49042;DHT22;34859;51.608;11.462;2022-08-24T01:49:17;14.00;99.90
49042;DHT22;34859;51.608;11.462;2022-08-24T01:52:02;13.90;99.90
49042;DHT22;34859;51.608;11.462;2022-08-24T01:54:49;13.80;99.90
49042;DHT22;34859;51.608;11.462;2022-08-24T01:57:33;13.80;99.90
49042;DHT22;34859;51.608;11.462;2022-08-24T02:00:18;13.80;99.90
49042;DHT22;34859;51.608;11.462;2022-08-24T02:03:03;13.80;99.90
49042;DHT22;34859;51.608;11.462;2022-08-24T02:05:47;13.80;99.90
49042;DHT22;34859;51.608;11.462;2022-08-24T02:08:31;13.80;99.90
49042;DHT22;34859;51.608;11.462;2022-08-24T02:11:19;13.90;99.90
49042;DHT22;34859;51.608;11.462;2022-08-24T02:14:03;13.90;99.90
49042;DHT22;34859;51.608;11.462;2022-08-24T02:16:48;13.80;99.90
49042;DHT22;34859;51.608;11.462;2022-08-24T02:19:33;13.80;99.90
49042;DHT22;34859;51.608;11.462;2022-08-24T02:22:17;13.80;99.90
49042;DHT22;34859;51.608;11.462;2022-08-24T02:25:01;13.80;99.90
49042;DHT22;34859;51.608;11.462;2022-08-24T02:27:43;13.80;99.90
49042;DHT22;34859;51.608;11.462;2022-08-24T02:30:28;13.80;99.90
49042;DHT22;34859;51.608;11.462;2022-08-24T02:33:12;13.80;99.90
49042;DHT22;34859;51.608;11.462;2022-08-24T02:35:57;13.70;99.90
49042;DHT22;34859;51.608;11.462;2022-08-24T02:38:42;13.70;99.90
49042;DHT22;34859;51.608;11.462;2022-08-24T02:41:26;13.60;99.90
49042;DHT22;34859;51.608;11.462;2022-08-24T02:44:11;13.60;99.90
49042;DHT22;34859;51.608;11.462;2022-08-24T02:46:55;13.60;99.90
49042;DHT22;34859;51.608;11.462;2022-08-24T02:49:39;13.60;99.90
49042;DHT22;34859;51.608;11.462;2022-08-24T02:52:23;13.60;99.90
49042;DHT22;34859;51.608;11.462;2022-08-24T02:55:11;13.50;99.90
49042;DHT22;34859;51.608;11.462;2022-08-24T02:57:56;13.50;99.90
49042;DHT22;34859;51.608;11.462;2022-08-24T03:00:41;13.50;99.90
49042;DHT22;34859;51.608;11.462;2022-08-24T03:03:26;13.50;99.90
49042;DHT22;34859;51.608;11.462;2022-08-24T03:06:10;13.40;99.90
49042;DHT22;34859;51.608;11.462;2022-08-24T03:08:54;13.40;99.90
49042;DHT22;34859;51.608;11.462;2022-08-24T03:11:39;13.40;99.90
49042;DHT22;34859;51.608;11.462;2022-08-24T03:14:23;13.40;99.90
49042;DHT22;34859;51.608;11.462;2022-08-24T03:17:05;13.30;99.90
49042;DHT22;34859;51.608;11.462;2022-08-24T03:19:49;13.30;99.90
49042;DHT22;34859;51.608;11.462;2022-08-24T03:22:33;13.40;99.90
49042;DHT22;34859;51.608;11.462;2022-08-24T03:25:19;13.30;99.90
49042;DHT22;34859;51.608;11.462;2022-08-24T03:28:03;13.30;99.90
49042;DHT22;34859;51.608;11.462;2022-08-24T03:30:47;13.30;99.90
49042;DHT22;34859;51.608;11.462;2022-08-24T03:33:31;13.30;99.90
49042;DHT22;34859;51.608;11.462;2022-08-24T03:36:16;13.30;99.90
49042;DHT22;34859;51.608;11.462;2022-08-24T03:39:00;13.30;99.90
49042;DHT22;34859;51.608;11.462;2022-08-24T03:41:44;13.30;99.90
49042;DHT22;34859;51.608;11.462;2022-08-24T03:44:29;13.20;99.90
49042;DHT22;34859;51.608;11.462;2022-08-24T03:47:13;13.20;99.90
49042;DHT22;34859;51.608;11.462;2022-08-24T03:49:57;13.20;99.90
49042;DHT22;34859;51.608;11.462;2022-08-24T03:52:41;13.20;99.90
49042;DHT22;34859;51.608;11.462;2022-08-24T03:55:25;13.20;99.90
49042;DHT22;34859;51.608;11.462;2022-08-24T03:58:10;13.20;99.90
49042;DHT22;34859;51.608;11.462;2022-08-24T04:00:55;13.20;99.90
49042;DHT22;34859;51.608;11.462;2022-08-24T04:03:41;13.20;99.90
49042;DHT22;34859;51.608;11.462;2022-08-24T04:06:26;13.20;99.90
49042;DHT22;34859;51.608;11.462;2022-08-24T04:09:10;13.20;99.90
49042;DHT22;34859;51.608;11.462;2022-08-24T04:11:54;13.20;99.90
49042;DHT22;34859;51.608;11.462;2022-08-24T04:14:38;13.10;99.90
49042;DHT22;34859;51.608;11.462;2022-08-24T04:17:23;13.00;99.90
49042;DHT22;34859;51.608;11.462;2022-08-24T04:20:07;13.00;99.90
49042;DHT22;34859;51.608;11.462;2022-08-24T04:22:51;13.10;99.90
49042;DHT22;34859;51.608;11.462;2022-08-24T04:25:43;13.00;99.90
49042;DHT22;34859;51.608;11.462;2022-08-24T04:28:27;13.10;99.90
49042;DHT22;34859;51.608;11.462;2022-08-24T04:31:12;13.10;99.90
49042;DHT22;34859;51.608;11.462;2022-08-24T04:33:58;13.10;99.90
49042;DHT22;34859;51.608;11.462;2022-08-24T04:36:43;13.20;99.90
49042;DHT22;34859;51.608;11.462;2022-08-24T04:39:28;13.20;99.90
49042;DHT22;34859;51.608;11.462;2022-08-24T04:42:12;13.10;99.90
49042;DHT22;34859;51.608;11.462;2022-08-24T04:44:56;13.00;99.90
49042;DHT22;34859;51.608;11.462;2022-08-24T04:47:42;13.00;99.90
49042;DHT22;34859;51.608;11.462;2022-08-24T04:50:26;13.10;99.90
49042;DHT22;34859;51.608;11.462;2022-08-24T04:53:11;13.10;99.90
49042;DHT22;34859;51.608;11.462;2022-08-24T04:55:56;13.10;99.90
49042;DHT22;34859;51.608;11.462;2022-08-24T04:58:41;13.10;99.90
49042;DHT22;34859;51.608;11.462;2022-08-24T05:01:27;13.20;99.90
49042;DHT22;34859;51.608;11.462;2022-08-24T05:04:12;13.20;99.90
49042;DHT22;34859;51.608;11.462;2022-08-24T05:06:57;13.30;99.90
49042;DHT22;34859;51.608;11.462;2022-08-24T05:09:41;13.30;99.90
49042;DHT22;34859;51.608;11.462;2022-08-24T05:12:25;13.30;99.90
49042;DHT22;34859;51.608;11.462;2022-08-24T05:15:10;13.40;99.90
49042;DHT22;34859;51.608;11.462;2022-08-24T05:17:55;13.50;99.90
49042;DHT22;34859;51.608;11.462;2022-08-24T05:20:44;13.60;99.90
49042;DHT22;34859;51.608;11.462;2022-08-24T05:23:29;13.60;99.90
49042;DHT22;34859;51.608;11.462;2022-08-24T05:26:25;13.70;99.90
49042;DHT22;34859;51.608;11.462;2022-08-24T05:29:10;13.80;99.90
49042;DHT22;34859;51.608;11.462;2022-08-24T05:31:51;13.80;99.90
49042;DHT22;34859;51.608;11.462;2022-08-24T05:34:35;13.90;99.90
49042;DHT22;34859;51.608;11.462;2022-08-24T05:37:19;14.00;99.90
49042;DHT22;34859;51.608;11.462;2022-08-24T05:40:06;14.10;99.90
49042;DHT22;34859;51.608;11.462;2022-08-24T05:42:50;14.10;99.90
49042;DHT22;34859;51.608;11.462;2022-08-24T05:45:34;14.20;99.90
49042;DHT22;34859;51.608;11.462;2022-08-24T05:48:18;14.30;99.90
49042;DHT22;34859;51.608;11.462;2022-08-24T05:51:02;14.30;99.90
49042;DHT22;34859;51.608;11.462;2022-08-24T05:53:48;14.40;99.90
49042;DHT22;34859;51.608;11.462;2022-08-24T05:56:32;14.50;99.90
49042;DHT22;34859;51.608;11.462;2022-08-24T05:59:17;14.60;99.90
49042;DHT22;34859;51.608;11.462;2022-08-24T06:02:03;14.70;99.90
49042;DHT22;34859;51.608;11.462;2022-08-24T06:04:47;14.80;99.90
49042;DHT22;34859;51.608;11.462;2022-08-24T06:07:29;14.90;99.90
49042;DHT22;34859;51.608;11.462;2022-08-24T06:10:13;15.10;99.90
49042;DHT22;34859;51.608;11.462;2022-08-24T06:12:57;15.10;99.90
49042;DHT22;34859;51.608;11.462;2022-08-24T06:15:42;15.20;99.90
49042;DHT22;34859;51.608;11.462;2022-08-24T06:18:27;15.30;99.90
49042;DHT22;34859;51.608;11.462;2022-08-24T06:21:14;15.50;99.90
49042;DHT22;34859;51.608;11.462;2022-08-24T06:23:59;15.50;99.90
49042;DHT22;34859;51.608;11.462;2022-08-24T06:26:44;15.70;99.90
49042;DHT22;34859;51.608;11.462;2022-08-24T06:29:52;15.80;99.90
49042;DHT22;34859;51.608;11.462;2022-08-24T06:32:37;16.00;99.90
49042;DHT22;34859;51.608;11.462;2022-08-24T06:35:22;16.10;99.90
49042;DHT22;34859;51.608;11.462;2022-08-24T06:38:07;16.20;99.90
49042;DHT22;34859;51.608;11.462;2022-08-24T06:40:51;16.40;99.90
49042;DHT22;34859;51.608;11.462;2022-08-24T06:43:36;16.50;99.90
49042;DHT22;34859;51.608;11.462;2022-08-24T06:46:20;16.70;99.90
49042;DHT22;34859;51.608;11.462;2022-08-24T06:49:04;16.80;99.90
49042;DHT22;34859;51.608;11.462;2022-08-24T06:51:49;16.90;99.90
49042;DHT22;34859;51.608;11.462;2022-08-24T06:54:32;17.10;99.90
49042;DHT22;34859;51.608;11.462;2022-08-24T06:57:16;17.20;99.90
49042;DHT22;34859;51.608;11.462;2022-08-24T07:00:00;17.40;99.90
49042;DHT22;34859;51.608;11.462;2022-08-24T07:02:44;17.50;99.90
49042;DHT22;34859;51.608;11.462;2022-08-24T07:05:28;17.70;99.90
49042;DHT22;34859;51.608;11.462;2022-08-24T07:08:13;17.90;99.90
49042;DHT22;34859;51.608;11.462;2022-08-24T07:10:57;18.00;99.90
49042;DHT22;34859;51.608;11.462;2022-08-24T07:13:42;18.10;99.90
49042;DHT22;34859;51.608;11.462;2022-08-24T07:16:26;18.30;99.90
49042;DHT22;34859;51.608;11.462;2022-08-24T07:19:10;18.40;99.90
49042;DHT22;34859;51.608;11.462;2022-08-24T07:21:56;18.50;99.90
49042;DHT22;34859;51.608;11.462;2022-08-24T07:24:41;18.70;99.90
49042;DHT22;34859;51.608;11.462;2022-08-24T07:27:25;18.90;99.90
49042;DHT22;34859;51.608;11.462;2022-08-24T07:30:07;19.00;99.90
49042;DHT22;34859;51.608;11.462;2022-08-24T07:32:49;19.20;99.90
49042;DHT22;34859;51.608;11.462;2022-08-24T07:35:33;19.20;99.90
49042;DHT22;34859;51.608;11.462;2022-08-24T07:38:17;19.40;99.90
49042;DHT22;34859;51.608;11.462;2022-08-24T07:41:02;19.50;99.90
49042;DHT22;34859;51.608;11.462;2022-08-24T07:43:46;19.80;99.90
49042;DHT22;34859;51.608;11.462;2022-08-24T07:46:31;19.90;99.90
49042;DHT22;34859;51.608;11.462;2022-08-24T07:49:15;20.10;99.90
49042;DHT22;34859;51.608;11.462;2022-08-24T07:51:59;20.20;99.90
49042;DHT22;34859;51.608;11.462;2022-08-24T07:54:43;20.30;99.90
49042;DHT22;34859;51.608;11.462;2022-08-24T07:57:28;20.40;99.90
49042;DHT22;34859;51.608;11.462;2022-08-24T08:00:15;20.50;99.90
49042;DHT22;34859;51.608;11.462;2022-08-24T08:02:59;20.80;99.90
49042;DHT22;34859;51.608;11.462;2022-08-24T08:05:45;20.80;99.90
49042;DHT22;34859;51.608;11.462;2022-08-24T08:08:34;21.00;99.90
49042;DHT22;34859;51.608;11.462;2022-08-24T08:11:19;21.10;99.90
49042;DHT22;34859;51.608;11.462;2022-08-24T08:14:03;21.20;99.90
49042;DHT22;34859;51.608;11.462;2022-08-24T08:16:47;21.30;99.90
49042;DHT22;34859;51.608;11.462;2022-08-24T08:19:33;21.50;99.90
49042;DHT22;34859;51.608;11.462;2022-08-24T08:22:17;21.70;99.90
49042;DHT22;34859;51.608;11.462;2022-08-24T08:25:20;21.70;99.90
49042;DHT22;34859;51.608;11.462;2022-08-24T08:28:05;21.70;99.90
49042;DHT22;34859;51.608;11.462;2022-08-24T08:30:49;21.80;99.90
49042;DHT22;34859;51.608;11.462;2022-08-24T08:33:35;21.90;99.90
49042;DHT22;34859;51.608;11.462;2022-08-24T08:36:19;21.90;99.90
49042;DHT22;34859;51.608;11.462;2022-08-24T08:39:07;22.00;99.90
49042;DHT22;34859;51.608;11.462;2022-08-24T08:54:40;22.30;99.90
49042;DHT22;34859;51.608;11.462;2022-08-24T09:01:04;22.60;99.90
49042;DHT22;34859;51.608;11.462;2022-08-24T09:13:42;22.90;99.90
49042;DHT22;34859;51.608;11.462;2022-08-24T09:17:03;23.00;99.90
49042;DHT22;34859;51.608;11.462;2022-08-24T09:23:20;23.10;99.90
49042;DHT22;34859;51.608;11.462;2022-08-24T09:26:26;23.30;99.90
49042;DHT22;34859;51.608;11.462;2022-08-24T09:29:22;23.40;99.90
49042;DHT22;34859;51.608;11.462;2022-08-24T09:33:05;23.50;99.90
49042;DHT22;34859;51.608;11.462;2022-08-24T09:42:25;23.80;99.90
49042;DHT22;34859;51.608;11.462;2022-08-24T09:58:17;23.90;99.90
49042;DHT22;34859;51.608;11.462;2022-08-24T10:01:19;24.00;99.90
49042;DHT22;34859;51.608;11.462;2022-08-24T10:10:37;24.30;99.90
49042;DHT22;34859;51.608;11.462;2022-08-24T10:13:39;24.50;99.90
49042;DHT22;34859;51.608;11.462;2022-08-24T10:32:51;24.40;99.90
49042;DHT22;34859;51.608;11.462;2022-08-24T10:38:49;24.60;99.90
49042;DHT22;34859;51.608;11.462;2022-08-24T10:54:32;24.90;99.90
49042;DHT22;34859;51.608;11.462;2022-08-24T11:00:11;25.00;99.90
49042;DHT22;34859;51.608;11.462;2022-08-24T11:03:23;25.20;99.90
49042;DHT22;34859;51.608;11.462;2022-08-24T11:06:14;25.30;99.90
49042;DHT22;34859;51.608;11.462;2022-08-24T11:11:49;25.40;99.90
49042;DHT22;34859;51.608;11.462;2022-08-24T11:14:37;25.50;99.90
49042;DHT22;34859;51.608;11.462;2022-08-24T11:17:23;25.40;99.90
49042;DHT22;34859;51.608;11.462;2022-08-24T11:20:33;25.40;99.90
49042;DHT22;34859;51.608;11.462;2022-08-24T11:23:24;25.40;99.90
49042;DHT22;34859;51.608;11.462;2022-08-24T11:26:19;25.50;99.90
49042;DHT22;34859;51.608;11.462;2022-08-24T11:29:04;25.50;99.90
49042;DHT22;34859;51.608;11.462;2022-08-24T11:31:50;25.60;99.90
49042;DHT22;34859;51.608;11.462;2022-08-24T11:34:36;25.80;99.90
49042;DHT22;34859;51.608;11.462;2022-08-24T11:37:34;25.90;99.90
49042;DHT22;34859;51.608;11.462;2022-08-24T11:40:21;26.10;99.90
49042;DHT22;34859;51.608;11.462;2022-08-24T11:43:56;26.00;99.90
49042;DHT22;34859;51.608;11.462;2022-08-24T11:49:26;26.00;99.90
49042;DHT22;34859;51.608;11.462;2022-08-24T11:58:22;26.00;99.90
49042;DHT22;34859;51.608;11.462;2022-08-24T12:04:43;26.10;99.90
49042;DHT22;34859;51.608;11.462;2022-08-24T12:20:44;26.50;99.90
49042;DHT22;34859;51.608;11.462;2022-08-24T12:26:27;26.40;99.20
49042;DHT22;34859;51.608;11.462;2022-08-24T12:32:22;26.50;98.10
49042;DHT22;34859;51.608;11.462;2022-08-24T12:35:15;26.40;97.70
49042;DHT22;34859;51.608;11.462;2022-08-24T12:38:18;26.30;98.30
49042;DHT22;34859;51.608;11.462;2022-08-24T12:41:26;26.60;96.20
49042;DHT22;34859;51.608;11.462;2022-08-24T12:44:15;26.50;96.10
49042;DHT22;34859;51.608;11.462;2022-08-24T12:46:59;26.50;96.50
49042;DHT22;34859;51.608;11.462;2022-08-24T12:49:48;26.60;96.30
49042;DHT22;34859;51.608;11.462;2022-08-24T13:01:29;26.90;96.40
49042;DHT22;34859;51.608;11.462;2022-08-24T13:07:51;26.90;95.70
49042;DHT22;34859;51.608;11.462;2022-08-24T13:10:52;26.80;95.30
49042;DHT22;34859;51.608;11.462;2022-08-24T13:17:05;26.70;95.40
49042;DHT22;34859;51.608;11.462;2022-08-24T13:20:16;26.70;95.80
49042;DHT22;34859;51.608;11.462;2022-08-24T13:26:21;26.80;93.90
49042;DHT22;34859;51.608;11.462;2022-08-24T13:29:06;26.80;94.30
49042;DHT22;34859;51.608;11.462;2022-08-24T13:31:53;26.90;94.70
49042;DHT22;34859;51.608;11.462;2022-08-24T13:34:42;27.00;94.50
49042;DHT22;34859;51.608;11.462;2022-08-24T13:37:27;26.90;93.90
49042;DHT22;34859;51.608;11.462;2022-08-24T13:40:16;26.90;93.10
49042;DHT22;34859;51.608;11.462;2022-08-24T13:43:29;27.00;93.60
49042;DHT22;34859;51.608;11.462;2022-08-24T13:53:08;26.90;92.50
49042;DHT22;34859;51.608;11.462;2022-08-24T13:56:18;26.90;92.60
49042;DHT22;34859;51.608;11.462;2022-08-24T13:59:07;27.00;92.90
49042;DHT22;34859;51.608;11.462;2022-08-24T14:02:19;27.00;93.50
49042;DHT22;34859;51.608;11.462;2022-08-24T14:08:05;26.80;93.70
49042;DHT22;34859;51.608;11.462;2022-08-24T14:11:07;26.80;93.30
49042;DHT22;34859;51.608;11.462;2022-08-24T14:17:24;26.90;93.70
49042;DHT22;34859;51.608;11.462;2022-08-24T14:21:06;27.10;92.10
49042;DHT22;34859;51.608;11.462;2022-08-24T14:24:03;27.20;92.50
49042;DHT22;34859;51.608;11.462;2022-08-24T14:26:56;27.00;91.80
49042;DHT22;34859;51.608;11.462;2022-08-24T14:29:43;27.00;91.20
49042;DHT22;34859;51.608;11.462;2022-08-24T14:32:29;27.00;92.70
49042;DHT22;34859;51.608;11.462;2022-08-24T14:35:21;27.00;91.60
49042;DHT22;34859;51.608;11.462;2022-08-24T14:41:18;27.00;92.60
49042;DHT22;34859;51.608;11.462;2022-08-24T14:50:42;27.00;91.80
49042;DHT22;34859;51.608;11.462;2022-08-24T14:57:01;26.80;91.60
49042;DHT22;34859;51.608;11.462;2022-08-24T15:05:45;26.70;92.40
49042;DHT22;34859;51.608;11.462;2022-08-24T15:08:35;26.80;90.90
49042;DHT22;34859;51.608;11.462;2022-08-24T15:11:26;26.80;91.70
49042;DHT22;34859;51.608;11.462;2022-08-24T15:14:27;26.80;91.50
49042;DHT22;34859;51.608;11.462;2022-08-24T15:17:20;26.70;91.80
49042;DHT22;34859;51.608;11.462;2022-08-24T15:20:14;26.70;91.30
49042;DHT22;34859;51.608;11.462;2022-08-24T15:23:04;26.80;92.00
49042;DHT22;34859;51.608;11.462;2022-08-24T15:28:37;26.70;91.00
49042;DHT22;34859;51.608;11.462;2022-08-24T15:31:30;26.70;91.60
49042;DHT22;34859;51.608;11.462;2022-08-24T15:34:15;26.70;91.40
49042;DHT22;34859;51.608;11.462;2022-08-24T15:37:00;26.70;91.40
49042;DHT22;34859;51.608;11.462;2022-08-24T15:39:44;26.50;91.20
49042;DHT22;34859;51.608;11.462;2022-08-24T15:42:31;26.50;90.40
49042;DHT22;34859;51.608;11.462;2022-08-24T15:45:18;26.50;90.70
49042;DHT22;34859;51.608;11.462;2022-08-24T15:48:04;26.40;90.90
49042;DHT22;34859;51.608;11.462;2022-08-24T15:50:48;26.50;91.10
49042;DHT22;34859;51.608;11.462;2022-08-24T15:53:40;26.40;90.60
49042;DHT22;34859;51.608;11.462;2022-08-24T15:56:30;26.40;90.60
49042;DHT22;34859;51.608;11.462;2022-08-24T15:59:31;26.40;91.50
49042;DHT22;34859;51.608;11.462;2022-08-24T16:02:29;26.40;91.50
49042;DHT22;34859;51.608;11.462;2022-08-24T16:05:36;26.30;90.60
49042;DHT22;34859;51.608;11.462;2022-08-24T16:08:21;26.40;91.10
49042;DHT22;34859;51.608;11.462;2022-08-24T16:11:19;26.30;91.30
49042;DHT22;34859;51.608;11.462;2022-08-24T16:14:23;26.30;91.10
49042;DHT22;34859;51.608;11.462;2022-08-24T16:17:28;26.30;91.60
49042;DHT22;34859;51.608;11.462;2022-08-24T16:23:10;26.20;91.60
49042;DHT22;34859;51.608;11.462;2022-08-24T16:26:25;26.20;92.40
49042;DHT22;34859;51.608;11.462;2022-08-24T16:32:28;26.10;91.90
49042;DHT22;34859;51.608;11.462;2022-08-24T16:35:18;26.10;92.00
49042;DHT22;34859;51.608;11.462;2022-08-24T16:38:04;26.10;93.20
49042;DHT22;34859;51.608;11.462;2022-08-24T16:40:48;26.00;93.50
49042;DHT22;34859;51.608;11.462;2022-08-24T16:43:37;25.90;93.00
49042;DHT22;34859;51.608;11.462;2022-08-24T16:46:22;25.90;93.10
49042;DHT22;34859;51.608;11.462;2022-08-24T16:49:04;25.90;93.40
49042;DHT22;34859;51.608;11.462;2022-08-24T16:51:49;25.80;93.50
49042;DHT22;34859;51.608;11.462;2022-08-24T16:54:33;25.90;93.50
49042;DHT22;34859;51.608;11.462;2022-08-24T16:57:23;25.80;94.50
49042;DHT22;34859;51.608;11.462;2022-08-24T17:00:10;25.70;95.00
49042;DHT22;34859;51.608;11.462;2022-08-24T17:02:57;25.50;95.20
49042;DHT22;34859;51.608;11.462;2022-08-24T17:05:41;25.40;95.20
49042;DHT22;34859;51.608;11.462;2022-08-24T17:08:27;25.40;94.50
49042;DHT22;34859;51.608;11.462;2022-08-24T17:11:12;25.30;95.10
49042;DHT22;34859;51.608;11.462;2022-08-24T17:13:56;25.20;95.10
49042;DHT22;34859;51.608;11.462;2022-08-24T17:16:41;25.20;95.70
49042;DHT22;34859;51.608;11.462;2022-08-24T17:19:27;25.10;95.60
49042;DHT22;34859;51.608;11.462;2022-08-24T17:22:12;25.10;95.80
49042;DHT22;34859;51.608;11.462;2022-08-24T17:24:56;25.00;96.00
49042;DHT22;34859;51.608;11.462;2022-08-24T17:27:40;24.90;95.90
49042;DHT22;34859;51.608;11.462;2022-08-24T17:30:25;24.90;96.10
49042;DHT22;34859;51.608;11.462;2022-08-24T17:33:10;24.80;96.50
49042;DHT22;34859;51.608;11.462;2022-08-24T17:35:54;24.70;96.40
49042;DHT22;34859;51.608;11.462;2022-08-24T17:38:42;24.50;96.70
49042;DHT22;34859;51.608;11.462;2022-08-24T17:41:28;24.50;96.40
49042;DHT22;34859;51.608;11.462;2022-08-24T17:44:16;24.50;96.70
49042;DHT22;34859;51.608;11.462;2022-08-24T17:47:03;24.50;96.60
49042;DHT22;34859;51.608;11.462;2022-08-24T17:49:48;24.40;97.30
49042;DHT22;34859;51.608;11.462;2022-08-24T17:52:32;24.20;97.70
49042;DHT22;34859;51.608;11.462;2022-08-24T17:55:16;24.10;97.80
49042;DHT22;34859;51.608;11.462;2022-08-24T17:58:00;23.90;99.00
49042;DHT22;34859;51.608;11.462;2022-08-24T18:00:44;23.70;99.60
49042;DHT22;34859;51.608;11.462;2022-08-24T18:03:26;23.50;99.40
49042;DHT22;34859;51.608;11.462;2022-08-24T18:06:10;23.30;99.90
49042;DHT22;34859;51.608;11.462;2022-08-24T18:08:54;23.20;99.90
49042;DHT22;34859;51.608;11.462;2022-08-24T18:11:38;23.00;99.90
49042;DHT22;34859;51.608;11.462;2022-08-24T18:14:22;22.70;99.90
49042;DHT22;34859;51.608;11.462;2022-08-24T18:17:09;22.60;99.90
49042;DHT22;34859;51.608;11.462;2022-08-24T18:19:54;22.40;99.90
49042;DHT22;34859;51.608;11.462;2022-08-24T18:22:39;22.30;99.90
49042;DHT22;34859;51.608;11.462;2022-08-24T18:25:27;22.10;99.90
49042;DHT22;34859;51.608;11.462;2022-08-24T18:28:14;22.00;99.90
49042;DHT22;34859;51.608;11.462;2022-08-24T18:30:56;21.90;99.90
49042;DHT22;34859;51.608;11.462;2022-08-24T18:33:40;21.70;99.90
49042;DHT22;34859;51.608;11.462;2022-08-24T18:36:25;21.50;99.90
49042;DHT22;34859;51.608;11.462;2022-08-24T18:39:09;21.30;99.90
49042;DHT22;34859;51.608;11.462;2022-08-24T18:41:54;21.20;99.90
49042;DHT22;34859;51.608;11.462;2022-08-24T18:44:38;21.10;99.90
49042;DHT22;34859;51.608;11.462;2022-08-24T18:47:22;21.00;99.90
49042;DHT22;34859;51.608;11.462;2022-08-24T18:50:07;20.80;99.90
49042;DHT22;34859;51.608;11.462;2022-08-24T18:52:48;20.70;99.90
49042;DHT22;34859;51.608;11.462;2022-08-24T18:55:33;20.60;99.90
49042;DHT22;34859;51.608;11.462;2022-08-24T18:58:20;20.50;99.90
49042;DHT22;34859;51.608;11.462;2022-08-24T19:01:04;20.40;99.90
49042;DHT22;34859;51.608;11.462;2022-08-24T19:03:48;20.40;99.90
49042;DHT22;34859;51.608;11.462;2022-08-24T19:06:30;20.20;99.90
49042;DHT22;34859;51.608;11.462;2022-08-24T19:09:15;20.10;99.90
49042;DHT22;34859;51.608;11.462;2022-08-24T19:11:59;19.90;99.90
49042;DHT22;34859;51.608;11.462;2022-08-24T19:14:43;19.90;99.90
49042;DHT22;34859;51.608;11.462;2022-08-24T19:17:30;19.70;99.90
49042;DHT22;34859;51.608;11.462;2022-08-24T19:20:15;19.60;99.90
49042;DHT22;34859;51.608;11.462;2022-08-24T19:23:05;19.50;99.90
49042;DHT22;34859;51.608;11.462;2022-08-24T19:25:49;19.40;99.90
49042;DHT22;34859;51.608;11.462;2022-08-24T19:28:31;19.30;99.90
49042;DHT22;34859;51.608;11.462;2022-08-24T19:31:17;19.20;99.90
